SLZC weather

San Carlos Airport
Ichilo, Santa Cruz Department, Bolivia

Public forecast

Using degrees Celsius for public forecast. Weather courtesy of forecast.io.

Closest aviation weather report (METAR) to San Carlos Airport

Closest report is Viru Viru International Airport, 33.8 nm (62.7 km) ESE. Retrieved 2019/10/22 15:00 UTC (3 minutes ago):

SLVR 221500Z 17007KT 9999 BKN080 28/10 Q1016

Closest aviation forecast (TAF) to San Carlos Airport

Closest forecast is Viru Viru International Airport, 33.8 nm (62.7 km) ESE. Retrieved 2019/10/22 12:40 UTC (2 hours ago):

TAF SLVR 221000Z 2212/2312 18012KT 9999 BKN080 TX31/2220Z TN17/2310Z BECMG 2218/2220 VRB02KT FEW020 SCT080 BECMG 2304/2306 16005KT NSC